Time;durP1;ratioP1;P1;durP2;ratioP2;P2;SDS_P1;SDS_P2;PMS_P1;PMS_P2;Temp;Humidity;BMP_temperature;BMP_pressure;BME280_temperature;BME280_humidity;BME280_pressure;Samples;Min_cycle;Max_cycle;Signal;HPM_P1;HPM_P2
2024/03/16 00:00:09;;;;;;;28.73;17.92;;;11.50;99.90;;;;;;6308569;22;20000;-73
2024/03/16 00:02:35;;;;;;;33.53;19.58;;;11.50;99.90;;;;;;6308135;22;20448;-73
2024/03/16 00:05:01;;;;;;;30.00;18.75;;;11.50;99.90;;;;;;6308711;22;20426;-74
2024/03/16 00:07:29;;;;;;;32.65;19.20;;;11.50;99.90;;;;;;6308581;22;20002;-73
2024/03/16 00:09:56;;;;;;;30.45;19.17;;;11.50;99.90;;;;;;6280841;22;20333;-73
2024/03/16 00:12:23;;;;;;;30.60;18.98;;;11.50;99.90;;;;;;6308318;22;20425;-73
2024/03/16 00:14:50;;;;;;;26.27;17.48;;;11.40;99.90;;;;;;6308544;22;19995;-73
2024/03/16 00:17:20;;;;;;;25.33;17.08;;;11.50;99.90;;;;;;6308721;22;20003;-73
2024/03/16 00:19:47;;;;;;;30.98;17.70;;;11.40;99.90;;;;;;6308484;22;20042;-73
2024/03/16 00:22:15;;;;;;;33.72;18.65;;;11.50;99.90;;;;;;6308638;22;20041;-73
2024/03/16 00:24:42;;;;;;;38.65;21.63;;;11.50;99.90;;;;;;6317348;22;20026;-73
2024/03/16 00:27:08;;;;;;;38.22;21.20;;;11.50;99.90;;;;;;6339096;22;20003;-73
2024/03/16 00:29:36;;;;;;;44.67;24.15;;;11.50;99.90;;;;;;6339442;22;20010;-73
2024/03/16 00:32:03;;;;;;;40.60;25.52;;;11.50;99.90;;;;;;6339430;22;20371;-72
2024/03/16 00:34:29;;;;;;;39.78;23.85;;;11.50;99.90;;;;;;6339498;22;20002;-73
2024/03/16 00:36:57;;;;;;;40.40;23.77;;;11.50;99.90;;;;;;6339196;22;19998;-73
2024/03/16 00:39:23;;;;;;;39.10;22.33;;;11.40;99.90;;;;;;6339216;22;20042;-73
2024/03/16 00:41:50;;;;;;;43.47;21.25;;;11.50;99.90;;;;;;6340034;22;20368;-73
2024/03/16 00:44:18;;;;;;;32.97;19.75;;;11.50;99.90;;;;;;6339945;22;20379;-72
2024/03/16 00:46:45;;;;;;;30.52;19.35;;;11.50;99.90;;;;;;6339665;22;20368;-73
2024/03/16 00:49:12;;;;;;;30.25;19.13;;;11.50;99.90;;;;;;6339645;22;20306;-73
2024/03/16 01:02:44;;;;;;;37.40;19.20;;;11.40;99.90;;;;;;6244257;23;20015;-72
2024/03/16 01:10:01;;;;;;;28.73;18.38;;;11.50;99.90;;;;;;6151852;23;20670;-73
2024/03/16 01:13:11;;;;;;;27.40;16.83;;;11.50;99.90;;;;;;6108212;23;20079;-73
2024/03/16 01:15:37;;;;;;;33.13;19.40;;;11.40;99.90;;;;;;6219281;22;20014;-73
2024/03/16 01:18:03;;;;;;;27.98;18.55;;;11.50;99.90;;;;;;6338248;22;20007;-73
2024/03/16 01:20:30;;;;;;;29.38;17.77;;;11.50;99.90;;;;;;6339041;22;20019;-72
2024/03/16 01:22:58;;;;;;;32.15;17.60;;;11.40;99.90;;;;;;6338970;22;20052;-73
2024/03/16 01:25:25;;;;;;;36.58;18.77;;;11.40;99.90;;;;;;6338838;22;20018;-73
2024/03/16 01:27:51;;;;;;;26.10;17.83;;;11.40;99.90;;;;;;6338915;22;20321;-73
2024/03/16 01:30:17;;;;;;;27.10;19.13;;;11.40;99.90;;;;;;6339069;22;20006;-73
2024/03/16 01:32:43;;;;;;;34.05;20.65;;;11.30;99.90;;;;;;6338272;22;20011;-73
2024/03/16 01:35:09;;;;;;;30.38;19.80;;;11.30;99.90;;;;;;6338275;22;19994;-73
2024/03/16 01:37:36;;;;;;;36.95;21.60;;;11.30;99.90;;;;;;6338481;22;20048;-73
2024/03/16 01:40:02;;;;;;;34.42;21.95;;;11.30;99.90;;;;;;6338726;22;20026;-73
2024/03/16 01:42:28;;;;;;;35.42;21.20;;;11.30;99.90;;;;;;6339070;22;20476;-73
2024/03/16 01:45:11;;;;;;;39.45;23.13;;;11.30;99.90;;;;;;6338396;22;20033;-73
2024/03/16 01:47:40;;;;;;;41.20;24.58;;;11.30;99.90;;;;;;6338983;22;20302;-73
2024/03/16 01:50:06;;;;;;;38.45;23.40;;;11.30;99.90;;;;;;6338896;22;20080;-76
2024/03/16 01:52:32;;;;;;;38.95;23.13;;;11.20;99.90;;;;;;6338580;22;20006;-72
2024/03/16 01:54:58;;;;;;;36.78;22.90;;;11.20;99.90;;;;;;6338528;22;20325;-72
2024/03/16 01:57:24;;;;;;;29.30;20.98;;;11.30;99.90;;;;;;6338275;22;19999;-73
2024/03/16 01:59:50;;;;;;;37.25;23.35;;;11.20;99.90;;;;;;6334223;22;20022;-73
2024/03/16 02:02:36;;;;;;;33.10;22.80;;;11.30;99.90;;;;;;6335118;22;20010;-73
2024/03/16 02:05:05;;;;;;;31.05;21.58;;;11.20;99.90;;;;;;6336801;22;20003;-73
2024/03/16 02:07:31;;;;;;;36.22;22.25;;;11.20;99.90;;;;;;6338526;22;20421;-72
2024/03/16 02:10:02;;;;;;;40.88;22.85;;;11.20;99.90;;;;;;6338674;22;20128;-73
2024/03/16 02:12:28;;;;;;;36.17;22.15;;;11.20;99.90;;;;;;6338219;22;20100;-75
2024/03/16 02:14:54;;;;;;;32.90;21.92;;;11.20;99.90;;;;;;6338561;22;20527;-73
2024/03/16 02:17:20;;;;;;;36.38;22.15;;;11.20;99.90;;;;;;6338609;22;20026;-73
2024/03/16 02:19:47;;;;;;;37.33;22.10;;;11.20;99.90;;;;;;6338369;22;20289;-73
2024/03/16 02:22:16;;;;;;;36.97;21.85;;;11.30;99.90;;;;;;6338144;22;20075;-73
2024/03/16 02:24:46;;;;;;;31.67;20.88;;;11.30;99.90;;;;;;6338942;22;20026;-72
2024/03/16 02:27:32;;;;;;;34.75;22.38;;;11.20;99.90;;;;;;6339013;22;20041;-73
2024/03/16 02:30:30;;;;;;;30.40;21.90;;;11.20;99.90;;;;;;6337281;22;20031;-73
2024/03/16 02:33:27;;;;;;;30.85;21.45;;;11.30;99.90;;;;;;6182063;23;20043;-73
2024/03/16 02:35:57;;;;;;;30.77;21.33;;;11.20;99.90;;;;;;6161120;23;20418;-73
2024/03/16 02:39:32;;;;;;;40.58;22.50;;;11.20;99.90;;;;;;6181481;23;20020;-72
2024/03/16 02:45:34;;;;;;;42.10;21.90;;;11.20;99.90;;;;;;6008133;23;20026;-73
2024/03/16 02:47:59;;;;;;;32.30;20.50;;;11.20;99.90;;;;;;6007606;23;20008;-73
2024/03/16 02:50:52;;;;;;;30.95;20.42;;;11.20;99.90;;;;;;6006022;23;20022;-73
2024/03/16 02:53:18;;;;;;;33.53;20.73;;;11.20;99.90;;;;;;5967864;23;20087;-73
2024/03/16 02:55:44;;;;;;;32.30;20.98;;;11.20;99.90;;;;;;6119909;22;20412;-73
2024/03/16 02:58:10;;;;;;;41.17;23.15;;;11.10;99.90;;;;;;6338353;22;20376;-73
2024/03/16 03:00:35;;;;;;;33.38;20.80;;;11.20;99.90;;;;;;6338181;22;19999;-73
2024/03/16 03:03:01;;;;;;;44.00;20.63;;;11.10;99.90;;;;;;6338190;22;20026;-73
2024/03/16 03:05:27;;;;;;;33.40;21.30;;;11.10;99.90;;;;;;6338142;22;19999;-73
2024/03/16 03:07:53;;;;;;;32.03;20.23;;;11.10;99.90;;;;;;6310363;22;20014;-73
2024/03/16 03:10:19;;;;;;;29.75;20.13;;;11.10;99.90;;;;;;6339366;22;20073;-73
2024/03/16 03:12:45;;;;;;;30.75;20.95;;;11.10;99.90;;;;;;6340768;22;20014;-73
2024/03/16 03:15:11;;;;;;;31.25;21.35;;;11.10;99.90;;;;;;6311962;22;20003;-73
2024/03/16 03:17:37;;;;;;;32.40;21.42;;;11.10;99.90;;;;;;6339877;22;20030;-73
2024/03/16 03:20:08;;;;;;;32.55;19.92;;;11.10;99.90;;;;;;6339605;22;20489;-72
2024/03/16 03:22:33;;;;;;;29.30;20.77;;;11.10;99.90;;;;;;6340278;22;19999;-73
2024/03/16 03:24:59;;;;;;;31.45;20.20;;;11.00;99.90;;;;;;6339838;22;20025;-73
2024/03/16 03:27:25;;;;;;;26.95;20.10;;;11.00;99.90;;;;;;6311901;22;20006;-73
2024/03/16 03:29:50;;;;;;;34.47;21.10;;;11.00;99.90;;;;;;6339503;22;20083;-73
2024/03/16 03:32:16;;;;;;;34.40;20.38;;;11.00;99.90;;;;;;6339580;22;20001;-73
2024/03/16 03:34:42;;;;;;;32.47;20.92;;;10.90;99.90;;;;;;6339519;22;20010;-73
2024/03/16 03:37:08;;;;;;;30.05;21.63;;;11.00;99.90;;;;;;6339762;22;20007;-73
2024/03/16 03:39:33;;;;;;;36.50;22.38;;;10.90;99.90;;;;;;6339586;22;20011;-73
2024/03/16 03:41:59;;;;;;;30.20;21.60;;;10.90;99.90;;;;;;6339530;22;20090;-73
2024/03/16 03:44:35;;;;;;;29.80;21.38;;;10.90;99.90;;;;;;6340212;22;20011;-73
2024/03/16 03:47:02;;;;;;;29.40;21.27;;;10.90;99.90;;;;;;6339852;22;20003;-73
2024/03/16 03:49:36;;;;;;;30.10;21.70;;;10.90;99.90;;;;;;6312078;22;20014;-73
2024/03/16 03:52:05;;;;;;;35.47;22.92;;;10.90;99.90;;;;;;6340028;22;20330;-73
2024/03/16 03:54:31;;;;;;;29.48;21.00;;;10.90;99.90;;;;;;6340708;22;20003;-73
2024/03/16 03:56:57;;;;;;;30.48;21.88;;;10.90;99.90;;;;;;6341000;22;20329;-73
2024/03/16 03:59:23;;;;;;;29.23;22.23;;;10.90;99.90;;;;;;6339766;22;20007;-73
2024/03/16 04:02:02;;;;;;;35.95;21.27;;;10.90;99.90;;;;;;6312792;22;20010;-73
2024/03/16 04:04:28;;;;;;;30.40;21.27;;;10.90;99.90;;;;;;6336834;22;20011;-72
2024/03/16 04:30:12;;;;;;;49.53;21.08;;;10.90;99.90;;;;;;6084913;23;20019;-73
2024/03/16 04:32:38;;;;;;;41.45;20.15;;;10.90;99.90;;;;;;6147581;23;20336;-73
2024/03/16 04:35:09;;;;;;;40.65;21.63;;;10.90;99.90;;;;;;6235971;23;20389;-73
2024/03/16 04:37:35;;;;;;;36.67;22.08;;;10.90;99.90;;;;;;6280950;22;20007;-73
2024/03/16 04:40:03;;;;;;;35.67;21.63;;;10.90;99.90;;;;;;6308177;22;20027;-72
2024/03/16 04:42:29;;;;;;;34.83;21.45;;;10.90;99.90;;;;;;6307839;22;20090;-73
2024/03/16 04:44:55;;;;;;;37.28;21.67;;;10.90;99.90;;;;;;6308400;22;20022;-72
2024/03/16 04:47:21;;;;;;;35.53;21.30;;;10.90;99.90;;;;;;6308136;22;20078;-73
2024/03/16 04:49:46;;;;;;;29.70;20.02;;;10.90;99.90;;;;;;6308055;22;20006;-73
2024/03/16 04:52:13;;;;;;;35.95;20.98;;;11.00;99.90;;;;;;6308158;22;20038;-72
2024/03/16 04:54:40;;;;;;;29.63;20.27;;;11.00;99.90;;;;;;6308121;22;20003;-73
2024/03/16 04:57:06;;;;;;;30.33;20.05;;;11.00;99.90;;;;;;6307674;22;19999;-72
2024/03/16 04:59:31;;;;;;;27.27;20.77;;;11.00;99.90;;;;;;6307818;22;20019;-73
2024/03/16 05:01:57;;;;;;;30.73;20.63;;;11.00;99.90;;;;;;6307968;22;20010;-73
2024/03/16 05:04:23;;;;;;;30.88;21.38;;;11.00;99.90;;;;;;6307924;22;19999;-72
2024/03/16 05:06:49;;;;;;;34.63;19.98;;;11.00;99.90;;;;;;6307978;22;20007;-72
2024/03/16 05:09:15;;;;;;;31.40;20.73;;;11.00;99.90;;;;;;6307635;22;20007;-73
2024/03/16 05:11:40;;;;;;;32.30;20.85;;;11.00;99.90;;;;;;6307705;22;20003;-73
2024/03/16 05:14:06;;;;;;;29.00;20.10;;;11.00;99.90;;;;;;6307676;22;20046;-72
2024/03/16 05:16:36;;;;;;;28.35;20.05;;;11.00;99.90;;;;;;6307489;22;20023;-73
2024/03/16 05:19:02;;;;;;;30.45;20.20;;;11.00;99.90;;;;;;6307728;22;20082;-73
2024/03/16 05:21:31;;;;;;;32.45;20.98;;;10.90;99.90;;;;;;6307294;22;20038;-73
2024/03/16 05:23:59;;;;;;;33.13;20.85;;;11.00;99.90;;;;;;6307640;22;20007;-73
2024/03/16 05:26:26;;;;;;;35.72;22.33;;;10.90;99.90;;;;;;6337706;22;20380;-73
2024/03/16 05:28:52;;;;;;;34.03;24.05;;;10.90;99.90;;;;;;6338970;22;20009;-73
2024/03/16 05:31:17;;;;;;;36.70;24.50;;;10.90;99.90;;;;;;6338785;22;19994;-73
2024/03/16 05:33:43;;;;;;;34.78;23.17;;;10.90;99.90;;;;;;6337733;22;20069;-73
2024/03/16 05:36:09;;;;;;;32.65;22.95;;;10.90;99.90;;;;;;6338935;22;20001;-73
2024/03/16 05:38:38;;;;;;;34.88;24.15;;;10.90;99.90;;;;;;6339142;22;20010;-72
2024/03/16 05:41:07;;;;;;;35.67;23.00;;;10.90;99.90;;;;;;6339942;22;20371;-73
2024/03/16 05:43:41;;;;;;;34.97;23.13;;;10.90;99.90;;;;;;6339222;22;20388;-72
2024/03/16 05:53:55;;;;;;;39.05;25.23;;;10.90;99.90;;;;;;6339099;22;20052;-73
2024/03/16 05:59:57;;;;;;;36.22;24.63;;;10.90;99.90;;;;;;6172294;23;20024;-72
2024/03/16 06:09:39;;;;;;;37.83;25.10;;;10.90;99.90;;;;;;6183152;23;20454;-73
2024/03/16 06:12:05;;;;;;;34.65;24.13;;;10.90;99.90;;;;;;6183004;23;20335;-73
2024/03/16 06:14:31;;;;;;;38.83;24.25;;;10.90;99.90;;;;;;6322598;22;20340;-73
2024/03/16 06:16:57;;;;;;;34.80;25.08;;;10.90;99.90;;;;;;6338546;22;20074;-73
2024/03/16 06:19:23;;;;;;;37.75;25.58;;;10.90;99.90;;;;;;6338177;22;20007;-73
2024/03/16 06:21:49;;;;;;;43.30;26.17;;;10.90;99.90;;;;;;6310144;22;20003;-73
2024/03/16 06:24:15;;;;;;;41.17;27.60;;;10.90;99.90;;;;;;6337917;22;20010;-73
2024/03/16 06:26:41;;;;;;;38.65;26.45;;;11.00;99.90;;;;;;6338206;22;20059;-73
2024/03/16 06:29:08;;;;;;;40.08;26.42;;;11.00;99.90;;;;;;6310787;22;20450;-73
2024/03/16 06:31:42;;;;;;;39.90;26.10;;;11.00;99.90;;;;;;6338552;22;20325;-73
2024/03/16 06:34:09;;;;;;;39.97;26.35;;;11.10;99.90;;;;;;6310694;22;20015;-73
2024/03/16 06:36:36;;;;;;;43.67;27.83;;;11.10;99.90;;;;;;6338131;22;20082;-73
2024/03/16 06:39:10;;;;;;;43.08;28.33;;;11.10;99.90;;;;;;6337992;22;20068;-73
2024/03/16 06:41:39;;;;;;;39.35;26.05;;;11.20;99.90;;;;;;6338580;22;19995;-73
2024/03/16 06:44:05;;;;;;;43.72;26.15;;;11.20;99.90;;;;;;6338094;22;20348;-72
2024/03/16 06:46:31;;;;;;;36.28;25.75;;;11.20;99.90;;;;;;6337852;22;20065;-73
2024/03/16 06:48:59;;;;;;;39.00;26.30;;;11.20;99.90;;;;;;6338449;22;20082;-73
2024/03/16 06:51:25;;;;;;;31.75;23.23;;;11.20;99.90;;;;;;6338293;22;20003;-73
2024/03/16 06:53:51;;;;;;;31.92;22.58;;;11.30;99.90;;;;;;6338721;22;20006;-73
2024/03/16 06:56:18;;;;;;;30.92;21.52;;;11.30;99.90;;;;;;6338500;22;20010;-72
2024/03/16 06:58:43;;;;;;;30.80;20.83;;;11.30;99.90;;;;;;6338254;22;20038;-73
2024/03/16 07:01:12;;;;;;;29.50;20.38;;;11.40;99.90;;;;;;6338332;22;20022;-72
2024/03/16 07:03:38;;;;;;;27.77;20.15;;;11.40;99.90;;;;;;6337898;22;20015;-73
2024/03/16 07:06:06;;;;;;;27.05;19.52;;;11.40;99.90;;;;;;6337937;22;20079;-73
2024/03/16 07:08:33;;;;;;;31.75;20.10;;;11.50;99.90;;;;;;6311086;22;20038;-72
2024/03/16 07:10:59;;;;;;;26.98;18.17;;;11.50;99.90;;;;;;6338397;22;19998;-73
2024/03/16 07:13:25;;;;;;;27.60;19.30;;;11.50;99.90;;;;;;6310890;22;20015;-72
2024/03/16 07:15:51;;;;;;;36.40;20.25;;;11.60;99.90;;;;;;6338513;22;20437;-73
2024/03/16 07:18:44;;;;;;;30.10;20.52;;;11.70;99.90;;;;;;6339140;22;20018;-73
2024/03/16 07:21:10;;;;;;;32.33;18.75;;;11.70;99.90;;;;;;6338767;22;20002;-73
2024/03/16 07:30:41;;;;;;;26.08;16.80;;;11.90;99.90;;;;;;6093856;23;20093;-73
2024/03/16 07:33:43;;;;;;;25.85;16.27;;;12.00;99.90;;;;;;6093970;23;20037;-72
2024/03/16 07:43:40;;;;;;;30.45;18.85;;;12.10;99.90;;;;;;6034687;23;20015;-73
2024/03/16 07:46:46;;;;;;;26.23;19.27;;;12.20;99.90;;;;;;6035951;23;20035;-73
2024/03/16 07:49:12;;;;;;;26.30;18.35;;;12.30;99.90;;;;;;6035892;23;20007;-73
2024/03/16 07:51:38;;;;;;;26.77;19.15;;;12.40;99.90;;;;;;6063115;23;20015;-73
2024/03/16 07:54:08;;;;;;;28.85;19.95;;;12.40;99.90;;;;;;6193634;22;20084;-73
2024/03/16 07:56:34;;;;;;;30.55;20.23;;;12.40;99.90;;;;;;6306733;22;20014;-73
2024/03/16 07:59:00;;;;;;;35.75;21.63;;;12.40;99.90;;;;;;6307825;22;20011;-75
2024/03/16 08:01:26;;;;;;;34.75;22.48;;;12.50;99.90;;;;;;6308069;22;20031;-73
2024/03/16 08:03:52;;;;;;;32.97;22.05;;;12.50;99.90;;;;;;6308088;22;19999;-74
2024/03/16 08:06:17;;;;;;;29.42;21.30;;;12.50;99.90;;;;;;6307410;22;20000;-74
2024/03/16 08:08:43;;;;;;;28.58;21.75;;;12.50;99.90;;;;;;6308255;22;20030;-73
2024/03/16 08:11:09;;;;;;;27.60;21.40;;;12.50;99.90;;;;;;6308358;22;20007;-73
2024/03/16 08:13:35;;;;;;;27.33;18.80;;;12.60;99.90;;;;;;6307668;22;19999;-74
2024/03/16 08:16:01;;;;;;;29.27;20.40;;;12.60;99.90;;;;;;6308398;22;20333;-74
2024/03/16 08:18:27;;;;;;;26.35;18.52;;;12.60;99.90;;;;;;6307817;22;20038;-74
2024/03/16 08:20:58;;;;;;;28.58;19.35;;;12.70;99.90;;;;;;6280365;22;20426;-73
2024/03/16 08:23:24;;;;;;;31.63;18.77;;;12.70;99.90;;;;;;6307665;22;20007;-74
2024/03/16 08:25:51;;;;;;;27.17;18.33;;;12.70;99.90;;;;;;6307373;22;20026;-73
2024/03/16 08:28:17;;;;;;;28.45;19.15;;;12.70;99.90;;;;;;6338088;22;20006;-73
2024/03/16 08:30:42;;;;;;;26.05;17.63;;;12.70;99.90;;;;;;6335897;22;20010;-73
2024/03/16 08:33:08;;;;;;;26.92;18.60;;;12.80;99.90;;;;;;6337706;22;20002;-73
2024/03/16 08:35:35;;;;;;;29.35;18.90;;;12.70;99.90;;;;;;6336621;22;20098;-73
2024/03/16 08:38:01;;;;;;;32.83;21.27;;;12.80;99.90;;;;;;6338339;22;19999;-73
2024/03/16 08:40:27;;;;;;;29.20;20.98;;;12.80;99.90;;;;;;6338228;22;20448;-73
2024/03/16 08:42:53;;;;;;;27.83;21.15;;;12.80;99.90;;;;;;6338303;22;20002;-74
2024/03/16 08:45:19;;;;;;;29.88;20.67;;;12.90;99.90;;;;;;6338552;22;19999;-73
2024/03/16 08:47:45;;;;;;;27.65;20.60;;;12.90;99.90;;;;;;6338870;22;20006;-73
2024/03/16 08:50:11;;;;;;;28.73;18.52;;;13.00;99.90;;;;;;6339413;22;20421;-73
2024/03/16 08:52:37;;;;;;;29.23;18.17;;;13.00;99.90;;;;;;6337536;22;20007;-73
2024/03/16 08:55:03;;;;;;;29.08;18.98;;;13.10;99.90;;;;;;6337156;22;19999;-73
2024/03/16 08:57:31;;;;;;;33.70;18.17;;;13.10;99.90;;;;;;6337335;22;20384;-73
2024/03/16 09:01:00;;;;;;;28.65;18.02;;;13.20;99.90;;;;;;6336334;22;20011;-73
2024/03/16 09:13:59;;;;;;;32.40;19.33;;;13.30;99.90;;;;;;6338415;22;20448;-79
2024/03/16 09:17:38;;;;;;;32.03;19.27;;;13.40;99.90;;;;;;6091953;23;20508;-72
2024/03/16 09:23:30;;;;;;;32.72;20.45;;;13.40;99.90;;;;;;6006943;23;20394;-75
2024/03/16 09:25:56;;;;;;;33.03;20.23;;;13.50;99.90;;;;;;6127233;22;20387;-75
2024/03/16 09:28:23;;;;;;;30.38;18.85;;;13.50;99.90;;;;;;6279589;22;20362;-75
2024/03/16 09:30:49;;;;;;;28.50;18.58;;;13.60;99.90;;;;;;6307466;22;20004;-77
2024/03/16 09:33:15;;;;;;;29.02;18.23;;;13.70;99.90;;;;;;6307674;22;20019;-75
2024/03/16 09:35:45;;;;;;;24.25;14.25;;;13.70;99.90;;;;;;6305599;22;20380;-74
2024/03/16 09:38:12;;;;;;;22.75;13.95;;;13.80;99.90;;;;;;6304078;22;20380;-73
2024/03/16 09:40:43;;;;;;;23.70;14.50;;;13.90;99.90;;;;;;6306186;22;20042;-74
2024/03/16 09:43:12;;;;;;;28.95;17.55;;;13.90;99.90;;;;;;6302915;22;20007;-73
2024/03/16 09:45:40;;;;;;;33.22;16.85;;;13.90;99.90;;;;;;6303739;22;20075;-72
2024/03/16 09:48:09;;;;;;;26.25;17.65;;;14.00;99.90;;;;;;6304675;22;20006;-73
2024/03/16 09:50:44;;;;;;;20.92;15.50;;;14.10;99.90;;;;;;6307182;22;20003;-73
2024/03/16 09:53:33;;;;;;;26.45;15.02;;;14.10;99.90;;;;;;6306813;22;19995;-73
2024/03/16 09:56:00;;;;;;;23.98;16.02;;;14.20;99.90;;;;;;6278478;22;20093;-74
2024/03/16 09:58:29;;;;;;;25.23;15.43;;;14.20;99.90;;;;;;6307134;22;20425;-73
2024/03/16 10:00:56;;;;;;;22.40;16.10;;;14.30;99.90;;;;;;6307070;22;19999;-73
2024/03/16 10:03:22;;;;;;;22.45;14.98;;;14.30;99.90;;;;;;6307008;22;20007;-73
2024/03/16 10:05:48;;;;;;;19.30;13.90;;;14.40;99.90;;;;;;6307091;22;20075;-73
2024/03/16 10:08:17;;;;;;;25.88;15.07;;;14.40;99.90;;;;;;6303557;22;20014;-73
2024/03/16 10:10:43;;;;;;;22.73;14.20;;;14.50;99.90;;;;;;6301515;22;20054;-73
2024/03/16 10:13:11;;;;;;;22.92;13.77;;;14.50;99.90;;;;;;6301854;22;20075;-72
2024/03/16 10:15:46;;;;;;;26.98;14.60;;;14.60;99.90;;;;;;6304248;22;20000;-73
2024/03/16 10:18:14;;;;;;;29.25;15.20;;;14.70;99.90;;;;;;6276837;22;20050;-73
2024/03/16 10:20:43;;;;;;;26.42;15.95;;;14.80;99.90;;;;;;6304951;22;20006;-73
2024/03/16 10:23:16;;;;;;;23.73;14.90;;;14.80;99.90;;;;;;6306587;22;20004;-76
2024/03/16 10:25:48;;;;;;;25.60;14.70;;;14.90;99.90;;;;;;6307922;22;20029;-73
2024/03/16 10:28:15;;;;;;;25.70;15.90;;;15.00;99.90;;;;;;6339422;22;20384;-73
2024/03/16 10:30:44;;;;;;;22.77;14.35;;;15.00;99.90;;;;;;6338899;22;19998;-73
2024/03/16 10:33:11;;;;;;;23.95;14.70;;;15.10;99.90;;;;;;6339155;22;19999;-73
2024/03/16 10:42:47;;;;;;;24.40;15.05;;;15.20;99.90;;;;;;6273485;22;20007;-72
2024/03/16 10:55:29;;;;;;;20.65;14.02;;;15.40;99.90;;;;;;5952449;24;19910;-75
2024/03/16 10:58:48;;;;;;;24.70;14.95;;;15.40;99.90;;;;;;6008029;23;20024;-72
2024/03/16 11:01:18;;;;;;;25.75;15.43;;;15.30;99.90;;;;;;6007728;23;20004;-72
2024/03/16 11:03:44;;;;;;;26.90;15.93;;;15.30;99.90;;;;;;6068728;23;20014;-74
2024/03/16 11:06:21;;;;;;;28.08;17.35;;;15.30;99.90;;;;;;6154362;23;20012;-75
2024/03/16 11:08:50;;;;;;;24.58;15.18;;;15.40;99.90;;;;;;6221816;22;20136;-74
2024/03/16 11:11:18;;;;;;;21.35;14.90;;;15.40;99.90;;;;;;6338657;22;20337;-76
2024/03/16 11:14:05;;;;;;;24.27;15.18;;;15.50;99.90;;;;;;6310321;22;20328;-72
2024/03/16 11:16:35;;;;;;;25.05;14.40;;;15.50;99.90;;;;;;6337574;22;20360;-72
2024/03/16 11:19:10;;;;;;;22.65;15.85;;;15.70;99.90;;;;;;6305246;22;20395;-75
2024/03/16 11:21:39;;;;;;;23.02;15.70;;;15.70;99.90;;;;;;6279633;22;20443;-73
2024/03/16 11:24:13;;;;;;;21.80;14.75;;;15.80;99.90;;;;;;6307018;22;20006;-74
2024/03/16 11:26:40;;;;;;;23.98;14.60;;;15.90;99.90;;;;;;6306436;22;20056;-76
2024/03/16 11:29:18;;;;;;;23.38;14.65;;;15.90;99.90;;;;;;6306813;22;19999;-75
2024/03/16 11:31:46;;;;;;;24.58;15.75;;;16.00;99.90;;;;;;6308101;22;20320;-74
2024/03/16 11:34:14;;;;;;;23.35;14.82;;;16.00;99.90;;;;;;6308728;22;19999;-74
2024/03/16 11:36:50;;;;;;;25.00;14.13;;;16.10;99.90;;;;;;6308513;22;20074;-74
2024/03/16 11:39:17;;;;;;;20.48;13.38;;;16.20;99.90;;;;;;6308376;22;20018;-75
2024/03/16 11:41:44;;;;;;;22.55;13.00;;;16.30;99.90;;;;;;6308808;22;20045;-75
2024/03/16 11:44:15;;;;;;;22.63;12.20;;;16.30;99.90;;;;;;6308762;22;20078;-76
2024/03/16 11:46:48;;;;;;;21.48;12.82;;;16.40;99.90;;;;;;6308351;22;20006;-76
2024/03/16 11:49:16;;;;;;;18.38;11.32;;;16.40;99.90;;;;;;6308462;22;20466;-73
2024/03/16 11:51:47;;;;;;;24.08;12.07;;;16.40;99.90;;;;;;6308511;22;20002;-74
2024/03/16 11:54:14;;;;;;;20.10;12.73;;;16.50;99.90;;;;;;6309575;22;20011;-76
2024/03/16 11:56:41;;;;;;;24.83;12.88;;;16.50;99.90;;;;;;6308732;22;20377;-76
2024/03/16 11:59:13;;;;;;;21.48;13.57;;;16.50;99.90;;;;;;6308243;22;20018;-76
2024/03/16 12:01:42;;;;;;;24.02;15.15;;;16.50;99.90;;;;;;6307396;22;20302;-77
2024/03/16 12:04:10;;;;;;;26.42;17.15;;;16.50;99.90;;;;;;6308570;22;20010;-75
2024/03/16 12:06:37;;;;;;;27.95;18.58;;;16.50;99.90;;;;;;6308331;22;20440;-78
2024/03/16 12:09:03;;;;;;;27.90;19.08;;;16.60;99.90;;;;;;6308228;22;20445;-75
2024/03/16 12:11:29;;;;;;;29.20;20.48;;;16.70;99.90;;;;;;6308061;22;20010;-76
2024/03/16 12:14:18;;;;;;;28.42;20.23;;;16.70;98.80;;;;;;6305954;22;20416;-74
2024/03/16 12:16:48;;;;;;;25.92;19.80;;;16.70;99.30;;;;;;6305723;22;20003;-73
2024/03/16 12:19:15;;;;;;;32.42;21.58;;;16.70;99.70;;;;;;6308052;22;20389;-73
2024/03/16 12:21:42;;;;;;;33.33;21.55;;;16.70;99.10;;;;;;6309200;22;19999;-74
2024/03/16 12:24:12;;;;;;;32.70;21.10;;;16.60;99.90;;;;;;6308969;22;20375;-73
2024/03/16 12:30:13;;;;;;;29.85;20.02;;;16.50;99.90;;;;;;6292392;22;20101;-74
2024/03/16 12:32:39;;;;;;;29.42;19.77;;;16.40;99.30;;;;;;6308953;22;20328;-74
2024/03/16 12:35:35;;;;;;;26.70;18.80;;;16.40;99.90;;;;;;6308400;22;20083;-74
2024/03/16 12:47:47;;;;;;;25.08;17.00;;;16.20;99.90;;;;;;6184182;23;20016;-75
2024/03/16 12:53:50;;;;;;;25.90;18.35;;;16.20;99.90;;;;;;6138179;23;20010;-74
2024/03/16 12:56:16;;;;;;;24.80;19.30;;;16.10;99.90;;;;;;6276643;22;20371;-72
2024/03/16 12:58:42;;;;;;;27.08;19.95;;;16.10;99.90;;;;;;6308029;22;20379;-73
2024/03/16 13:01:15;;;;;;;26.65;17.88;;;16.10;99.90;;;;;;6308098;22;20303;-73
2024/03/16 13:03:49;;;;;;;23.83;14.80;;;16.10;99.90;;;;;;6307784;22;20051;-72
2024/03/16 13:06:15;;;;;;;21.80;15.00;;;16.10;99.90;;;;;;6280093;22;20367;-72
2024/03/16 13:08:41;;;;;;;24.30;13.80;;;16.10;99.90;;;;;;6307393;22;20323;-74
2024/03/16 13:11:10;;;;;;;23.63;14.95;;;16.10;99.90;;;;;;6307869;22;19995;-74
2024/03/16 13:13:36;;;;;;;23.00;14.90;;;16.10;99.90;;;;;;6307740;22;20325;-73
2024/03/16 13:16:03;;;;;;;23.75;15.05;;;16.10;99.90;;;;;;6307792;22;20003;-73
2024/03/16 13:18:30;;;;;;;21.30;14.02;;;16.20;99.90;;;;;;6307724;22;20112;-73
2024/03/16 13:20:57;;;;;;;20.20;13.38;;;16.10;99.90;;;;;;6305125;22;20014;-74
2024/03/16 13:23:22;;;;;;;17.40;12.55;;;16.20;99.90;;;;;;6304317;22;20034;-74
2024/03/16 13:25:48;;;;;;;20.88;13.20;;;16.20;99.90;;;;;;6304671;22;20003;-74
2024/03/16 13:28:15;;;;;;;24.08;12.95;;;16.20;99.90;;;;;;6307285;22;20433;-74
2024/03/16 13:30:41;;;;;;;23.27;12.65;;;16.20;99.90;;;;;;6307728;22;20002;-74
2024/03/16 13:33:09;;;;;;;19.30;12.70;;;16.20;99.90;;;;;;6307568;22;20003;-74
2024/03/16 13:35:35;;;;;;;21.83;12.88;;;16.20;99.90;;;;;;6307249;22;20513;-74
2024/03/16 13:38:01;;;;;;;22.55;13.77;;;16.20;99.90;;;;;;6307591;22;20003;-74
2024/03/16 13:40:29;;;;;;;17.08;12.48;;;16.10;99.90;;;;;;6307495;22;19999;-74
2024/03/16 13:42:55;;;;;;;20.90;12.95;;;16.10;99.90;;;;;;6307514;22;19999;-75
2024/03/16 13:45:21;;;;;;;21.88;12.60;;;16.10;99.90;;;;;;6301855;22;20064;-73
2024/03/16 13:47:46;;;;;;;30.08;13.88;;;16.10;99.90;;;;;;6276835;22;20007;-79
2024/03/16 13:50:13;;;;;;;23.80;12.50;;;16.10;99.90;;;;;;6277590;22;20013;-85
2024/03/16 13:52:39;;;;;;;19.55;12.07;;;16.00;99.90;;;;;;6306553;22;20018;-84
2024/03/16 13:55:05;;;;;;;19.27;11.38;;;16.00;99.90;;;;;;6307204;22;20335;-85
2024/03/16 13:57:31;;;;;;;16.90;11.32;;;16.00;99.90;;;;;;6308278;22;20007;-82
2024/03/16 13:59:57;;;;;;;18.88;11.27;;;16.00;99.90;;;;;;6308412;22;20011;-81
2024/03/16 14:02:23;;;;;;;18.80;12.30;;;16.00;99.90;;;;;;6307834;22;19999;-83
2024/03/16 14:04:51;;;;;;;19.58;11.90;;;16.00;99.50;;;;;;6280528;22;20095;-84
2024/03/16 14:07:18;;;;;;;17.20;11.05;;;16.00;99.40;;;;;;6306542;22;20049;-76
2024/03/16 14:10:08;;;;;;;16.65;11.20;;;15.90;99.80;;;;;;6303651;22;20014;-78
2024/03/16 14:14:07;;;;;;;16.40;10.60;;;16.00;99.90;;;;;;6302889;22;20097;-83
2024/03/16 14:17:07;;;;;;;18.65;10.40;;;16.00;99.90;;;;;;6156227;23;20018;-80
2024/03/16 14:22:53;;;;;;;18.60;11.32;;;16.00;99.60;;;;;;6032102;23;20030;-74
2024/03/16 14:28:49;;;;;;;14.50;8.30;;;16.30;99.70;;;;;;5941068;23;20440;-74
2024/03/16 14:31:46;;;;;;;17.17;8.50;;;16.40;99.50;;;;;;6160104;23;20010;-76
2024/03/16 14:34:21;;;;;;;19.60;8.85;;;16.50;99.40;;;;;;6152300;23;20010;-77
2024/03/16 14:36:47;;;;;;;23.13;8.20;;;16.60;98.70;;;;;;6150073;23;20333;-73
2024/03/16 14:39:15;;;;;;;14.93;7.85;;;16.70;98.50;;;;;;6176377;22;20394;-74
2024/03/16 14:41:42;;;;;;;15.18;8.63;;;16.80;98.90;;;;;;6249119;22;20337;-74
2024/03/16 14:44:08;;;;;;;16.17;8.73;;;16.90;98.30;;;;;;6249163;22;20392;-75
2024/03/16 14:46:33;;;;;;;19.58;9.13;;;16.90;97.50;;;;;;6276595;22;20003;-72
2024/03/16 14:48:59;;;;;;;17.25;9.35;;;16.90;97.20;;;;;;6276458;22;20038;-74
2024/03/16 14:51:25;;;;;;;13.63;8.32;;;16.90;97.00;;;;;;6275290;22;20000;-74